METAR Data
IDs: Format: Raw Decoded Include TAF

Data at: 0414 UTC 07 Jun 2020

METAR for:KHLB (Batesville Arpt, IN, US)
Text:KHLB 070355Z AUTO 00000KT 10SM CLR 22/09 A3002 RMK A01
Temperature: 22.0°C ( 72°F)
Dewpoint: 9.0°C ( 48°F) [RH = 43%]
Pressure (altimeter):30.02 inches Hg (1016.7 mb)
Winds:calm
Visibility:10 or more sm (16+ km)
Ceiling:at least 12,000 feet AGL
Clouds:sky clear below 12,000 feet AGL
QC Flag:automated observation with no human augmentation
Text:KHLB 070335Z AUTO 00000KT 10SM CLR 23/09 A3002 RMK A01
Temperature: 23.0°C ( 73°F)
Dewpoint: 9.0°C ( 48°F) [RH = 41%]
Pressure (altimeter):30.02 inches Hg (1016.7 mb)
Winds:calm
Visibility:10 or more sm (16+ km)
Ceiling:at least 12,000 feet AGL
Clouds:sky clear below 12,000 feet AGL
QC Flag:automated observation with no human augmentation
Text:KHLB 070315Z AUTO VRB04KT 10SM CLR 23/10 A3002 RMK A01
Temperature: 23.0°C ( 73°F)
Dewpoint: 10.0°C ( 50°F) [RH = 44%]
Pressure (altimeter):30.02 inches Hg (1016.7 mb)
Winds:variable direction winds at 5 MPH (4 knots; 2.1 m/s)
Visibility:10 or more sm (16+ km)
Ceiling:at least 12,000 feet AGL
Clouds:sky clear below 12,000 feet AGL
QC Flag:automated observation with no human augmentation
Text:KHLB 070255Z AUTO 00000KT 10SM CLR 22/12 A3001 RMK A01
Temperature: 22.0°C ( 72°F)
Dewpoint: 12.0°C ( 54°F) [RH = 53%]
Pressure (altimeter):30.01 inches Hg (1016.3 mb)
Winds:calm
Visibility:10 or more sm (16+ km)
Ceiling:at least 12,000 feet AGL
Clouds:sky clear below 12,000 feet AGL
QC Flag:automated observation with no human augmentation
Text:KHLB 070235Z AUTO 00000KT 10SM CLR 24/12 A3001 RMK A01
Temperature: 24.0°C ( 75°F)
Dewpoint: 12.0°C ( 54°F) [RH = 47%]
Pressure (altimeter):30.01 inches Hg (1016.3 mb)
Winds:calm
Visibility:10 or more sm (16+ km)
Ceiling:at least 12,000 feet AGL
Clouds:sky clear below 12,000 feet AGL
QC Flag:automated observation with no human augmentation
Text:KHLB 070215Z AUTO 00000KT 10SM CLR 24/13 A3000 RMK A01
Temperature: 24.0°C ( 75°F)
Dewpoint: 13.0°C ( 55°F) [RH = 50%]
Pressure (altimeter):30.00 inches Hg (1016.0 mb)
Winds:calm
Visibility:10 or more sm (16+ km)
Ceiling:at least 12,000 feet AGL
Clouds:sky clear below 12,000 feet AGL
QC Flag:automated observation with no human augmentation
Text:KHLB 070155Z AUTO 00000KT 10SM SCT110 25/13 A2999 RMK A01
Temperature: 25.0°C ( 77°F)
Dewpoint: 13.0°C ( 55°F) [RH = 47%]
Pressure (altimeter):29.99 inches Hg (1015.7 mb)
Winds:calm
Visibility:10 or more sm (16+ km)
Ceiling:at least 12,000 feet AGL
Clouds: scattered clouds at 11000 feet AGL
QC Flag:automated observation with no human augmentation
Text:KHLB 070135Z AUTO 34004KT 10SM SCT110 25/15 A2998 RMK A01
Temperature: 25.0°C ( 77°F)
Dewpoint: 15.0°C ( 59°F) [RH = 54%]
Pressure (altimeter):29.98 inches Hg (1015.3 mb)
Winds:from the NNW (340 degrees) at 5 MPH (4 knots; 2.1 m/s)
Visibility:10 or more sm (16+ km)
Ceiling:at least 12,000 feet AGL
Clouds: scattered clouds at 11000 feet AGL
QC Flag:automated observation with no human augmentation
Text:KHLB 070115Z AUTO 00000KT 10SM CLR 24/16 A2997 RMK A01
Temperature: 24.0°C ( 75°F)
Dewpoint: 16.0°C ( 61°F) [RH = 61%]
Pressure (altimeter):29.97 inches Hg (1015.0 mb)
Winds:calm
Visibility:10 or more sm (16+ km)
Ceiling:at least 12,000 feet AGL
Clouds:sky clear below 12,000 feet AGL
QC Flag:automated observation with no human augmentation
Text:KHLB 070055Z AUTO 00000KT 10SM CLR 25/17 A2996 RMK A01
Temperature: 25.0°C ( 77°F)
Dewpoint: 17.0°C ( 63°F) [RH = 61%]
Pressure (altimeter):29.96 inches Hg (1014.6 mb)
Winds:calm
Visibility:10 or more sm (16+ km)
Ceiling:at least 12,000 feet AGL
Clouds:sky clear below 12,000 feet AGL
QC Flag:automated observation with no human augmentation
Text:KHLB 070035Z AUTO 00000KT 10SM CLR 26/16 A2997 RMK A01
Temperature: 26.0°C ( 79°F)
Dewpoint: 16.0°C ( 61°F) [RH = 54%]
Pressure (altimeter):29.97 inches Hg (1015.0 mb)
Winds:calm
Visibility:10 or more sm (16+ km)
Ceiling:at least 12,000 feet AGL
Clouds:sky clear below 12,000 feet AGL
QC Flag:automated observation with no human augmentation
Text:KHLB 070015Z AUTO 00000KT 10SM CLR 27/16 A2996 RMK A01
Temperature: 27.0°C ( 81°F)
Dewpoint: 16.0°C ( 61°F) [RH = 51%]
Pressure (altimeter):29.96 inches Hg (1014.6 mb)
Winds:calm
Visibility:10 or more sm (16+ km)
Ceiling:at least 12,000 feet AGL
Clouds:sky clear below 12,000 feet AGL
QC Flag:automated observation with no human augmentation
Text:KHLB 062355Z AUTO 00000KT 10SM FEW110 27/19 A2996 RMK A01
Temperature: 27.0°C ( 81°F)
Dewpoint: 19.0°C ( 66°F) [RH = 62%]
Pressure (altimeter):29.96 inches Hg (1014.6 mb)
Winds:calm
Visibility:10 or more sm (16+ km)
Ceiling:at least 12,000 feet AGL
Clouds: few clouds at 11000 feet AGL
QC Flag:automated observation with no human augmentation
Text:KHLB 062335Z AUTO 30004KT 10SM SCT110 28/17 A2996 RMK A01
Temperature: 28.0°C ( 82°F)
Dewpoint: 17.0°C ( 63°F) [RH = 51%]
Pressure (altimeter):29.96 inches Hg (1014.6 mb)
Winds:from the WNW (300 degrees) at 5 MPH (4 knots; 2.1 m/s)
Visibility:10 or more sm (16+ km)
Ceiling:at least 12,000 feet AGL
Clouds: scattered clouds at 11000 feet AGL
QC Flag:automated observation with no human augmentation
Text:KHLB 062315Z AUTO 00000KT 10SM CLR 29/18 A2996 RMK A01
Temperature: 29.0°C ( 84°F)
Dewpoint: 18.0°C ( 64°F) [RH = 52%]
Pressure (altimeter):29.96 inches Hg (1014.6 mb)
Winds:calm
Visibility:10 or more sm (16+ km)
Ceiling:at least 12,000 feet AGL
Clouds:sky clear below 12,000 feet AGL
QC Flag:automated observation with no human augmentation
Text:KHLB 062255Z AUTO VRB05KT 10SM CLR 30/16 A2996 RMK A01
Temperature: 30.0°C ( 86°F)
Dewpoint: 16.0°C ( 61°F) [RH = 43%]
Pressure (altimeter):29.96 inches Hg (1014.6 mb)
Winds:variable direction winds at 6 MPH (5 knots; 2.6 m/s)
Visibility:10 or more sm (16+ km)
Ceiling:at least 12,000 feet AGL
Clouds:sky clear below 12,000 feet AGL
QC Flag:automated observation with no human augmentation
Text:KHLB 062235Z AUTO 00000KT 10SM FEW110 31/16 A2996 RMK A01
Temperature: 31.0°C ( 88°F)
Dewpoint: 16.0°C ( 61°F) [RH = 40%]
Pressure (altimeter):29.96 inches Hg (1014.6 mb)
Winds:calm
Visibility:10 or more sm (16+ km)
Ceiling:at least 12,000 feet AGL
Clouds: few clouds at 11000 feet AGL
QC Flag:automated observation with no human augmentation
Text:KHLB 062215Z AUTO 00000G10KT 10SM FEW110 30/15 A2996 RMK A01
Temperature: 30.0°C ( 86°F)
Dewpoint: 15.0°C ( 59°F) [RH = 40%]
Pressure (altimeter):29.96 inches Hg (1014.6 mb)
Winds:calm
Visibility:10 or more sm (16+ km)
Ceiling:at least 12,000 feet AGL
Clouds: few clouds at 11000 feet AGL
QC Flag:automated observation with no human augmentation
Text:KHLB 062155Z AUTO VRB04KT 10SM CLR 31/14 A2996 RMK A01
Temperature: 31.0°C ( 88°F)
Dewpoint: 14.0°C ( 57°F) [RH = 36%]
Pressure (altimeter):29.96 inches Hg (1014.6 mb)
Winds:variable direction winds at 5 MPH (4 knots; 2.1 m/s)
Visibility:10 or more sm (16+ km)
Ceiling:at least 12,000 feet AGL
Clouds:sky clear below 12,000 feet AGL
QC Flag:automated observation with no human augmentation
Text:KHLB 062135Z AUTO VRB04KT 10SM CLR 31/15 A2997 RMK A01
Temperature: 31.0°C ( 88°F)
Dewpoint: 15.0°C ( 59°F) [RH = 38%]
Pressure (altimeter):29.97 inches Hg (1015.0 mb)
Winds:variable direction winds at 5 MPH (4 knots; 2.1 m/s)
Visibility:10 or more sm (16+ km)
Ceiling:at least 12,000 feet AGL
Clouds:sky clear below 12,000 feet AGL
QC Flag:automated observation with no human augmentation
Text:KHLB 062115Z AUTO 00000KT 10SM CLR 31/16 A2997 RMK A01
Temperature: 31.0°C ( 88°F)
Dewpoint: 16.0°C ( 61°F) [RH = 40%]
Pressure (altimeter):29.97 inches Hg (1015.0 mb)
Winds:calm
Visibility:10 or more sm (16+ km)
Ceiling:at least 12,000 feet AGL
Clouds:sky clear below 12,000 feet AGL
QC Flag:automated observation with no human augmentation
Text:KHLB 062055Z AUTO 00000KT 10SM CLR 31/16 A2997 RMK A01
Temperature: 31.0°C ( 88°F)
Dewpoint: 16.0°C ( 61°F) [RH = 40%]
Pressure (altimeter):29.97 inches Hg (1015.0 mb)
Winds:calm
Visibility:10 or more sm (16+ km)
Ceiling:at least 12,000 feet AGL
Clouds:sky clear below 12,000 feet AGL
QC Flag:automated observation with no human augmentation
Text:KHLB 062035Z AUTO 30004KT 10SM CLR 31/15 A2998 RMK A01
Temperature: 31.0°C ( 88°F)
Dewpoint: 15.0°C ( 59°F) [RH = 38%]
Pressure (altimeter):29.98 inches Hg (1015.3 mb)
Winds:from the WNW (300 degrees) at 5 MPH (4 knots; 2.1 m/s)
Visibility:10 or more sm (16+ km)
Ceiling:at least 12,000 feet AGL
Clouds:sky clear below 12,000 feet AGL
QC Flag:automated observation with no human augmentation
Text:KHLB 062015Z AUTO 04005KT 10SM CLR 31/16 A2998 RMK A01
Temperature: 31.0°C ( 88°F)
Dewpoint: 16.0°C ( 61°F) [RH = 40%]
Pressure (altimeter):29.98 inches Hg (1015.3 mb)
Winds:from the NE (40 degrees) at 6 MPH (5 knots; 2.6 m/s)
Visibility:10 or more sm (16+ km)
Ceiling:at least 12,000 feet AGL
Clouds:sky clear below 12,000 feet AGL
QC Flag:automated observation with no human augmentation
Text:KHLB 061955Z AUTO VRB04KT 10SM CLR 31/17 A2999 RMK A01
Temperature: 31.0°C ( 88°F)
Dewpoint: 17.0°C ( 63°F) [RH = 43%]
Pressure (altimeter):29.99 inches Hg (1015.7 mb)
Winds:variable direction winds at 5 MPH (4 knots; 2.1 m/s)
Visibility:10 or more sm (16+ km)
Ceiling:at least 12,000 feet AGL
Clouds:sky clear below 12,000 feet AGL
QC Flag:automated observation with no human augmentation
Text:KHLB 061935Z AUTO VRB05KT 10SM CLR 31/17 A2999 RMK A01
Temperature: 31.0°C ( 88°F)
Dewpoint: 17.0°C ( 63°F) [RH = 43%]
Pressure (altimeter):29.99 inches Hg (1015.7 mb)
Winds:variable direction winds at 6 MPH (5 knots; 2.6 m/s)
Visibility:10 or more sm (16+ km)
Ceiling:at least 12,000 feet AGL
Clouds:sky clear below 12,000 feet AGL
QC Flag:automated observation with no human augmentation
Text:KHLB 061915Z AUTO VRB04KT 10SM CLR 31/17 A2999 RMK A01
Temperature: 31.0°C ( 88°F)
Dewpoint: 17.0°C ( 63°F) [RH = 43%]
Pressure (altimeter):29.99 inches Hg (1015.7 mb)
Winds:variable direction winds at 5 MPH (4 knots; 2.1 m/s)
Visibility:10 or more sm (16+ km)
Ceiling:at least 12,000 feet AGL
Clouds:sky clear below 12,000 feet AGL
QC Flag:automated observation with no human augmentation
Text:KHLB 061855Z AUTO 00000G10KT 10SM CLR 31/18 A2999 RMK A01
Temperature: 31.0°C ( 88°F)
Dewpoint: 18.0°C ( 64°F) [RH = 46%]
Pressure (altimeter):29.99 inches Hg (1015.7 mb)
Winds:calm
Visibility:10 or more sm (16+ km)
Ceiling:at least 12,000 feet AGL
Clouds:sky clear below 12,000 feet AGL
QC Flag:automated observation with no human augmentation
Text:KHLB 061835Z AUTO 01006G11KT 10SM FEW050 31/18 A3000 RMK A01
Temperature: 31.0°C ( 88°F)
Dewpoint: 18.0°C ( 64°F) [RH = 46%]
Pressure (altimeter):30.00 inches Hg (1016.0 mb)
Winds:from the N (10 degrees) at 7 MPH (6 knots; 3.1 m/s) gusting to 13 MPH (11 knots; 5.7 m/s)
Visibility:10 or more sm (16+ km)
Ceiling:at least 12,000 feet AGL
Clouds: few clouds at 5000 feet AGL
QC Flag:automated observation with no human augmentation
Text:KHLB 061815Z AUTO VRB04KT 10SM FEW050 30/19 A3001 RMK A01
Temperature: 30.0°C ( 86°F)
Dewpoint: 19.0°C ( 66°F) [RH = 52%]
Pressure (altimeter):30.01 inches Hg (1016.3 mb)
Winds:variable direction winds at 5 MPH (4 knots; 2.1 m/s)
Visibility:10 or more sm (16+ km)
Ceiling:at least 12,000 feet AGL
Clouds: few clouds at 5000 feet AGL
QC Flag:automated observation with no human augmentation
Text:KHLB 061755Z AUTO VRB06KT 10SM CLR 31/19 A3001 RMK A01
Temperature: 31.0°C ( 88°F)
Dewpoint: 19.0°C ( 66°F) [RH = 49%]
Pressure (altimeter):30.01 inches Hg (1016.3 mb)
Winds:variable direction winds at 7 MPH (6 knots; 3.1 m/s)
Visibility:10 or more sm (16+ km)
Ceiling:at least 12,000 feet AGL
Clouds:sky clear below 12,000 feet AGL
QC Flag:automated observation with no human augmentation
Text:KHLB 061735Z AUTO 32006KT 10SM CLR 30/19 A3001 RMK A01
Temperature: 30.0°C ( 86°F)
Dewpoint: 19.0°C ( 66°F) [RH = 52%]
Pressure (altimeter):30.01 inches Hg (1016.3 mb)
Winds:from the NW (320 degrees) at 7 MPH (6 knots; 3.1 m/s)
Visibility:10 or more sm (16+ km)
Ceiling:at least 12,000 feet AGL
Clouds:sky clear below 12,000 feet AGL
QC Flag:automated observation with no human augmentation
Text:KHLB 061715Z AUTO 30004KT 10SM CLR 30/19 A3001 RMK A01
Temperature: 30.0°C ( 86°F)
Dewpoint: 19.0°C ( 66°F) [RH = 52%]
Pressure (altimeter):30.01 inches Hg (1016.3 mb)
Winds:from the WNW (300 degrees) at 5 MPH (4 knots; 2.1 m/s)
Visibility:10 or more sm (16+ km)
Ceiling:at least 12,000 feet AGL
Clouds:sky clear below 12,000 feet AGL
QC Flag:automated observation with no human augmentation
Text:KHLB 061655Z AUTO VRB03KT 10SM CLR 30/19 A3002 RMK A01
Temperature: 30.0°C ( 86°F)
Dewpoint: 19.0°C ( 66°F) [RH = 52%]
Pressure (altimeter):30.02 inches Hg (1016.7 mb)
Winds:variable direction winds at 3 MPH (3 knots; 1.5 m/s)
Visibility:10 or more sm (16+ km)
Ceiling:at least 12,000 feet AGL
Clouds:sky clear below 12,000 feet AGL
QC Flag:automated observation with no human augmentation
Text:KHLB 061635Z AUTO 00000KT 10SM CLR 30/19 A3002 RMK A01
Temperature: 30.0°C ( 86°F)
Dewpoint: 19.0°C ( 66°F) [RH = 52%]
Pressure (altimeter):30.02 inches Hg (1016.7 mb)
Winds:calm
Visibility:10 or more sm (16+ km)
Ceiling:at least 12,000 feet AGL
Clouds:sky clear below 12,000 feet AGL
QC Flag:automated observation with no human augmentation
Text:KHLB 061615Z AUTO VRB04G11KT 10SM CLR 30/19 A3003 RMK A01
Temperature: 30.0°C ( 86°F)
Dewpoint: 19.0°C ( 66°F) [RH = 52%]
Pressure (altimeter):30.03 inches Hg (1017.0 mb)
Winds:variable direction winds at 5 MPH (4 knots; 2.1 m/s) gusting to 13 MPH (11 knots; 5.7 m/s)
Visibility:10 or more sm (16+ km)
Ceiling:at least 12,000 feet AGL
Clouds:sky clear below 12,000 feet AGL
QC Flag:automated observation with no human augmentation
Text:KHLB 061555Z AUTO VRB05KT 10SM CLR 30/19 A3002 RMK A01
Temperature: 30.0°C ( 86°F)
Dewpoint: 19.0°C ( 66°F) [RH = 52%]
Pressure (altimeter):30.02 inches Hg (1016.7 mb)
Winds:variable direction winds at 6 MPH (5 knots; 2.6 m/s)
Visibility:10 or more sm (16+ km)
Ceiling:at least 12,000 feet AGL
Clouds:sky clear below 12,000 feet AGL
QC Flag:automated observation with no human augmentation
Text:KHLB 061535Z AUTO 00000KT 10SM CLR 29/20 A3002 RMK A01
Temperature: 29.0°C ( 84°F)
Dewpoint: 20.0°C ( 68°F) [RH = 58%]
Pressure (altimeter):30.02 inches Hg (1016.7 mb)
Winds:calm
Visibility:10 or more sm (16+ km)
Ceiling:at least 12,000 feet AGL
Clouds:sky clear below 12,000 feet AGL
QC Flag:automated observation with no human augmentation
Text:KHLB 061515Z AUTO 30003KT 10SM CLR 28/21 A3002 RMK A01
Temperature: 28.0°C ( 82°F)
Dewpoint: 21.0°C ( 70°F) [RH = 66%]
Pressure (altimeter):30.02 inches Hg (1016.7 mb)
Winds:from the WNW (300 degrees) at 3 MPH (3 knots; 1.5 m/s)
Visibility:10 or more sm (16+ km)
Ceiling:at least 12,000 feet AGL
Clouds:sky clear below 12,000 feet AGL
QC Flag:automated observation with no human augmentation
Text:KHLB 061455Z AUTO 00000KT 10SM CLR 28/22 A3002 RMK A01
Temperature: 28.0°C ( 82°F)
Dewpoint: 22.0°C ( 72°F) [RH = 70%]
Pressure (altimeter):30.02 inches Hg (1016.7 mb)
Winds:calm
Visibility:10 or more sm (16+ km)
Ceiling:at least 12,000 feet AGL
Clouds:sky clear below 12,000 feet AGL
QC Flag:automated observation with no human augmentation
Text:KHLB 061435Z AUTO 00000KT 10SM CLR 28/22 A3001 RMK A01
Temperature: 28.0°C ( 82°F)
Dewpoint: 22.0°C ( 72°F) [RH = 70%]
Pressure (altimeter):30.01 inches Hg (1016.3 mb)
Winds:calm
Visibility:10 or more sm (16+ km)
Ceiling:at least 12,000 feet AGL
Clouds:sky clear below 12,000 feet AGL
QC Flag:automated observation with no human augmentation
Text:KHLB 061415Z AUTO 00000KT 10SM CLR 27/22 A3001 RMK A01
Temperature: 27.0°C ( 81°F)
Dewpoint: 22.0°C ( 72°F) [RH = 74%]
Pressure (altimeter):30.01 inches Hg (1016.3 mb)
Winds:calm
Visibility:10 or more sm (16+ km)
Ceiling:at least 12,000 feet AGL
Clouds:sky clear below 12,000 feet AGL
QC Flag:automated observation with no human augmentation
Text:KHLB 061355Z AUTO 00000KT 10SM CLR 27/22 A3001 RMK A01
Temperature: 27.0°C ( 81°F)
Dewpoint: 22.0°C ( 72°F) [RH = 74%]
Pressure (altimeter):30.01 inches Hg (1016.3 mb)
Winds:calm
Visibility:10 or more sm (16+ km)
Ceiling:at least 12,000 feet AGL
Clouds:sky clear below 12,000 feet AGL
QC Flag:automated observation with no human augmentation
Text:KHLB 061335Z AUTO 00000KT 10SM CLR 26/23 A3001 RMK A01
Temperature: 26.0°C ( 79°F)
Dewpoint: 23.0°C ( 73°F) [RH = 84%]
Pressure (altimeter):30.01 inches Hg (1016.3 mb)
Winds:calm
Visibility:10 or more sm (16+ km)
Ceiling:at least 12,000 feet AGL
Clouds:sky clear below 12,000 feet AGL
QC Flag:automated observation with no human augmentation
Text:KHLB 061315Z AUTO 00000KT 10SM CLR 25/23 A3000 RMK A01
Temperature: 25.0°C ( 77°F)
Dewpoint: 23.0°C ( 73°F) [RH = 89%]
Pressure (altimeter):30.00 inches Hg (1016.0 mb)
Winds:calm
Visibility:10 or more sm (16+ km)
Ceiling:at least 12,000 feet AGL
Clouds:sky clear below 12,000 feet AGL
QC Flag:automated observation with no human augmentation
Text:KHLB 061255Z AUTO 32006KT 8SM CLR 25/23 A3000 RMK A01
Temperature: 25.0°C ( 77°F)
Dewpoint: 23.0°C ( 73°F) [RH = 89%]
Pressure (altimeter):30.00 inches Hg (1016.0 mb)
Winds:from the NW (320 degrees) at 7 MPH (6 knots; 3.1 m/s)
Visibility: 8 sm ( 13 km)
Ceiling:at least 12,000 feet AGL
Clouds:sky clear below 12,000 feet AGL
QC Flag:automated observation with no human augmentation
Text:KHLB 061235Z AUTO 00000KT 8SM CLR 24/24 A3000 RMK A01
Temperature: 24.0°C ( 75°F)
Dewpoint: 24.0°C ( 75°F) [RH = 100%]
Pressure (altimeter):30.00 inches Hg (1016.0 mb)
Winds:calm
Visibility: 8 sm ( 13 km)
Ceiling:at least 12,000 feet AGL
Clouds:sky clear below 12,000 feet AGL
QC Flag:automated observation with no human augmentation
Text:KHLB 061215Z AUTO 00000KT 9SM CLR 23/23 A2999 RMK A01
Temperature: 23.0°C ( 73°F)
Dewpoint: 23.0°C ( 73°F) [RH = 100%]
Pressure (altimeter):29.99 inches Hg (1015.7 mb)
Winds:calm
Visibility: 9 sm ( 14 km)
Ceiling:at least 12,000 feet AGL
Clouds:sky clear below 12,000 feet AGL
QC Flag:automated observation with no human augmentation
Text:KHLB 061155Z AUTO 00000KT 6SM BR CLR 21/21 A2999 RMK A01
Temperature: 21.0°C ( 70°F)
Dewpoint: 21.0°C ( 70°F) [RH = 100%]
Pressure (altimeter):29.99 inches Hg (1015.7 mb)
Winds:calm
Visibility: 6 sm ( 10 km)
Ceiling:at least 12,000 feet AGL
Clouds:sky clear below 12,000 feet AGL
Weather:BR (mist)
QC Flag:automated observation with no human augmentation
Text:KHLB 061135Z AUTO 00000KT 5SM BR CLR 20/20 A2999 RMK A01
Temperature: 20.0°C ( 68°F)
Dewpoint: 20.0°C ( 68°F) [RH = 100%]
Pressure (altimeter):29.99 inches Hg (1015.7 mb)
Winds:calm
Visibility: 5 sm ( 8 km)
Ceiling:at least 12,000 feet AGL
Clouds:sky clear below 12,000 feet AGL
Weather:BR (mist)
QC Flag:automated observation with no human augmentation
Text:KHLB 061115Z AUTO 00000KT 3SM BR CLR 19/19 A2999 RMK A01
Temperature: 19.0°C ( 66°F)
Dewpoint: 19.0°C ( 66°F) [RH = 100%]
Pressure (altimeter):29.99 inches Hg (1015.7 mb)
Winds:calm
Visibility: 3 sm ( 5 km)
Ceiling:at least 12,000 feet AGL
Clouds:sky clear below 12,000 feet AGL
Weather:BR (mist)
QC Flag:automated observation with no human augmentation
Text:KHLB 061055Z AUTO 00000KT 2SM BR CLR 19/19 A2998 RMK A01 VIS 1 1/2V3
Temperature: 19.0°C ( 66°F)
Dewpoint: 19.0°C ( 66°F) [RH = 100%]
Pressure (altimeter):29.98 inches Hg (1015.3 mb)
Winds:calm
Visibility: 2.00 sm ( 3.22 km)
Ceiling:at least 12,000 feet AGL
Clouds:sky clear below 12,000 feet AGL
Weather:BR (mist)
QC Flag:automated observation with no human augmentation
Text:KHLB 061035Z AUTO 00000KT 1 3/4SM BR CLR 18/18 A2998 RMK A01
Temperature: 18.0°C ( 64°F)
Dewpoint: 18.0°C ( 64°F) [RH = 100%]
Pressure (altimeter):29.98 inches Hg (1015.3 mb)
Winds:calm
Visibility: 1.75 sm ( 2.82 km)
Ceiling:at least 12,000 feet AGL
Clouds:sky clear below 12,000 feet AGL
Weather:BR (mist)
QC Flag:automated observation with no human augmentation
Text:KHLB 061015Z AUTO 00000KT 3SM BR CLR 19/19 A2997 RMK A01
Temperature: 19.0°C ( 66°F)
Dewpoint: 19.0°C ( 66°F) [RH = 100%]
Pressure (altimeter):29.97 inches Hg (1015.0 mb)
Winds:calm
Visibility: 3 sm ( 5 km)
Ceiling:at least 12,000 feet AGL
Clouds:sky clear below 12,000 feet AGL
Weather:BR (mist)
QC Flag:automated observation with no human augmentation
Text:KHLB 060955Z AUTO 00000KT 4SM BR CLR 19/19 A2997 RMK A01
Temperature: 19.0°C ( 66°F)
Dewpoint: 19.0°C ( 66°F) [RH = 100%]
Pressure (altimeter):29.97 inches Hg (1015.0 mb)
Winds:calm
Visibility: 4 sm ( 6 km)
Ceiling:at least 12,000 feet AGL
Clouds:sky clear below 12,000 feet AGL
Weather:BR (mist)
QC Flag:automated observation with no human augmentation
Text:KHLB 060935Z AUTO 00000KT 4SM BR CLR 19/19 A2996 RMK A01
Temperature: 19.0°C ( 66°F)
Dewpoint: 19.0°C ( 66°F) [RH = 100%]
Pressure (altimeter):29.96 inches Hg (1014.6 mb)
Winds:calm
Visibility: 4 sm ( 6 km)
Ceiling:at least 12,000 feet AGL
Clouds:sky clear below 12,000 feet AGL
Weather:BR (mist)
QC Flag:automated observation with no human augmentation
Text:KHLB 060915Z AUTO 00000KT 4SM BR CLR 19/19 A2996 RMK A01
Temperature: 19.0°C ( 66°F)
Dewpoint: 19.0°C ( 66°F) [RH = 100%]
Pressure (altimeter):29.96 inches Hg (1014.6 mb)
Winds:calm
Visibility: 4 sm ( 6 km)
Ceiling:at least 12,000 feet AGL
Clouds:sky clear below 12,000 feet AGL
Weather:BR (mist)
QC Flag:automated observation with no human augmentation
Text:KHLB 060855Z AUTO 00000KT 5SM BR FEW040 19/19 A2996 RMK A01
Temperature: 19.0°C ( 66°F)
Dewpoint: 19.0°C ( 66°F) [RH = 100%]
Pressure (altimeter):29.96 inches Hg (1014.6 mb)
Winds:calm
Visibility: 5 sm ( 8 km)
Ceiling:at least 12,000 feet AGL
Clouds: few clouds at 4000 feet AGL
Weather:BR (mist)
QC Flag:automated observation with no human augmentation
Text:KHLB 060835Z AUTO 00000KT 6SM BR FEW040 19/19 A2995 RMK A01
Temperature: 19.0°C ( 66°F)
Dewpoint: 19.0°C ( 66°F) [RH = 100%]
Pressure (altimeter):29.95 inches Hg (1014.3 mb)
Winds:calm
Visibility: 6 sm ( 10 km)
Ceiling:at least 12,000 feet AGL
Clouds: few clouds at 4000 feet AGL
Weather:BR (mist)
QC Flag:automated observation with no human augmentation
Text:KHLB 060815Z AUTO 00000KT 8SM CLR 19/19 A2996 RMK A01
Temperature: 19.0°C ( 66°F)
Dewpoint: 19.0°C ( 66°F) [RH = 100%]
Pressure (altimeter):29.96 inches Hg (1014.6 mb)
Winds:calm
Visibility: 8 sm ( 13 km)
Ceiling:at least 12,000 feet AGL
Clouds:sky clear below 12,000 feet AGL
QC Flag:automated observation with no human augmentation
Text:KHLB 060755Z AUTO 00000KT 9SM FEW042 19/19 A2996 RMK A01
Temperature: 19.0°C ( 66°F)
Dewpoint: 19.0°C ( 66°F) [RH = 100%]
Pressure (altimeter):29.96 inches Hg (1014.6 mb)
Winds:calm
Visibility: 9 sm ( 14 km)
Ceiling:at least 12,000 feet AGL
Clouds: few clouds at 4200 feet AGL
QC Flag:automated observation with no human augmentation
Text:KHLB 060735Z AUTO 00000KT 10SM CLR 20/20 A2996 RMK A01
Temperature: 20.0°C ( 68°F)
Dewpoint: 20.0°C ( 68°F) [RH = 100%]
Pressure (altimeter):29.96 inches Hg (1014.6 mb)
Winds:calm
Visibility:10 or more sm (16+ km)
Ceiling:at least 12,000 feet AGL
Clouds:sky clear below 12,000 feet AGL
QC Flag:automated observation with no human augmentation
Text:KHLB 060715Z AUTO 00000KT 10SM CLR 19/19 A2996 RMK A01
Temperature: 19.0°C ( 66°F)
Dewpoint: 19.0°C ( 66°F) [RH = 100%]
Pressure (altimeter):29.96 inches Hg (1014.6 mb)
Winds:calm
Visibility:10 or more sm (16+ km)
Ceiling:at least 12,000 feet AGL
Clouds:sky clear below 12,000 feet AGL
QC Flag:automated observation with no human augmentation
Text:KHLB 060655Z AUTO 00000KT 10SM CLR 19/19 A2996 RMK A01
Temperature: 19.0°C ( 66°F)
Dewpoint: 19.0°C ( 66°F) [RH = 100%]
Pressure (altimeter):29.96 inches Hg (1014.6 mb)
Winds:calm
Visibility:10 or more sm (16+ km)
Ceiling:at least 12,000 feet AGL
Clouds:sky clear below 12,000 feet AGL
QC Flag:automated observation with no human augmentation
Text:KHLB 060635Z AUTO 00000KT 10SM CLR 20/20 A2996 RMK A01
Temperature: 20.0°C ( 68°F)
Dewpoint: 20.0°C ( 68°F) [RH = 100%]
Pressure (altimeter):29.96 inches Hg (1014.6 mb)
Winds:calm
Visibility:10 or more sm (16+ km)
Ceiling:at least 12,000 feet AGL
Clouds:sky clear below 12,000 feet AGL
QC Flag:automated observation with no human augmentation
Text:KHLB 060615Z AUTO 00000KT 10SM CLR 20/20 A2996 RMK A01
Temperature: 20.0°C ( 68°F)
Dewpoint: 20.0°C ( 68°F) [RH = 100%]
Pressure (altimeter):29.96 inches Hg (1014.6 mb)
Winds:calm
Visibility:10 or more sm (16+ km)
Ceiling:at least 12,000 feet AGL
Clouds:sky clear below 12,000 feet AGL
QC Flag:automated observation with no human augmentation
Text:KHLB 060555Z AUTO 00000KT 10SM CLR 20/20 A2996 RMK A01
Temperature: 20.0°C ( 68°F)
Dewpoint: 20.0°C ( 68°F) [RH = 100%]
Pressure (altimeter):29.96 inches Hg (1014.6 mb)
Winds:calm
Visibility:10 or more sm (16+ km)
Ceiling:at least 12,000 feet AGL
Clouds:sky clear below 12,000 feet AGL
QC Flag:automated observation with no human augmentation
Text:KHLB 060535Z AUTO 00000KT 10SM CLR 20/20 A2996 RMK A01
Temperature: 20.0°C ( 68°F)
Dewpoint: 20.0°C ( 68°F) [RH = 100%]
Pressure (altimeter):29.96 inches Hg (1014.6 mb)
Winds:calm
Visibility:10 or more sm (16+ km)
Ceiling:at least 12,000 feet AGL
Clouds:sky clear below 12,000 feet AGL
QC Flag:automated observation with no human augmentation
Text:KHLB 060515Z AUTO 00000KT 10SM CLR 20/20 A2996 RMK A01
Temperature: 20.0°C ( 68°F)
Dewpoint: 20.0°C ( 68°F) [RH = 100%]
Pressure (altimeter):29.96 inches Hg (1014.6 mb)
Winds:calm
Visibility:10 or more sm (16+ km)
Ceiling:at least 12,000 feet AGL
Clouds:sky clear below 12,000 feet AGL
QC Flag:automated observation with no human augmentation
Text:KHLB 060455Z AUTO 00000KT 10SM CLR 20/20 A2997 RMK A01
Temperature: 20.0°C ( 68°F)
Dewpoint: 20.0°C ( 68°F) [RH = 100%]
Pressure (altimeter):29.97 inches Hg (1015.0 mb)
Winds:calm
Visibility:10 or more sm (16+ km)
Ceiling:at least 12,000 feet AGL
Clouds:sky clear below 12,000 feet AGL
QC Flag:automated observation with no human augmentation
Text:KHLB 060435Z AUTO 00000KT 10SM CLR 21/21 A2997 RMK A01
Temperature: 21.0°C ( 70°F)
Dewpoint: 21.0°C ( 70°F) [RH = 100%]
Pressure (altimeter):29.97 inches Hg (1015.0 mb)
Winds:calm
Visibility:10 or more sm (16+ km)
Ceiling:at least 12,000 feet AGL
Clouds:sky clear below 12,000 feet AGL
QC Flag:automated observation with no human augmentation
Text:KHLB 060415Z AUTO 00000KT 10SM CLR 21/21 A2997 RMK A01
Temperature: 21.0°C ( 70°F)
Dewpoint: 21.0°C ( 70°F) [RH = 100%]
Pressure (altimeter):29.97 inches Hg (1015.0 mb)
Winds:calm
Visibility:10 or more sm (16+ km)
Ceiling:at least 12,000 feet AGL
Clouds:sky clear below 12,000 feet AGL
QC Flag:automated observation with no human augmentation
Text:KHLB 060355Z AUTO 00000KT 10SM CLR 21/21 A2996 RMK A01
Temperature: 21.0°C ( 70°F)
Dewpoint: 21.0°C ( 70°F) [RH = 100%]
Pressure (altimeter):29.96 inches Hg (1014.6 mb)
Winds:calm
Visibility:10 or more sm (16+ km)
Ceiling:at least 12,000 feet AGL
Clouds:sky clear below 12,000 feet AGL
QC Flag:automated observation with no human augmentation
Text:KHLB 060335Z AUTO 00000KT 10SM CLR 21/21 A2996 RMK A01
Temperature: 21.0°C ( 70°F)
Dewpoint: 21.0°C ( 70°F) [RH = 100%]
Pressure (altimeter):29.96 inches Hg (1014.6 mb)
Winds:calm
Visibility:10 or more sm (16+ km)
Ceiling:at least 12,000 feet AGL
Clouds:sky clear below 12,000 feet AGL
QC Flag:automated observation with no human augmentation
Text:KHLB 060315Z AUTO 00000KT 10SM CLR 21/21 A2996 RMK A01
Temperature: 21.0°C ( 70°F)
Dewpoint: 21.0°C ( 70°F) [RH = 100%]
Pressure (altimeter):29.96 inches Hg (1014.6 mb)
Winds:calm
Visibility:10 or more sm (16+ km)
Ceiling:at least 12,000 feet AGL
Clouds:sky clear below 12,000 feet AGL
QC Flag:automated observation with no human augmentation
Text:KHLB 060255Z AUTO 00000KT 10SM CLR 22/22 A2996 RMK A01
Temperature: 22.0°C ( 72°F)
Dewpoint: 22.0°C ( 72°F) [RH = 100%]
Pressure (altimeter):29.96 inches Hg (1014.6 mb)
Winds:calm
Visibility:10 or more sm (16+ km)
Ceiling:at least 12,000 feet AGL
Clouds:sky clear below 12,000 feet AGL
QC Flag:automated observation with no human augmentation
Text:KHLB 060235Z AUTO 00000KT 10SM CLR 22/22 A2995 RMK A01
Temperature: 22.0°C ( 72°F)
Dewpoint: 22.0°C ( 72°F) [RH = 100%]
Pressure (altimeter):29.95 inches Hg (1014.3 mb)
Winds:calm
Visibility:10 or more sm (16+ km)
Ceiling:at least 12,000 feet AGL
Clouds:sky clear below 12,000 feet AGL
QC Flag:automated observation with no human augmentation
Text:KHLB 060215Z AUTO 00000KT 10SM CLR 22/22 A2995 RMK A01
Temperature: 22.0°C ( 72°F)
Dewpoint: 22.0°C ( 72°F) [RH = 100%]
Pressure (altimeter):29.95 inches Hg (1014.3 mb)
Winds:calm
Visibility:10 or more sm (16+ km)
Ceiling:at least 12,000 feet AGL
Clouds:sky clear below 12,000 feet AGL
QC Flag:automated observation with no human augmentation
Text:KHLB 060150Z AUTO 00000KT 10SM CLR 23/23 A2994 RMK A01
Temperature: 23.0°C ( 73°F)
Dewpoint: 23.0°C ( 73°F) [RH = 100%]
Pressure (altimeter):29.94 inches Hg (1014.0 mb)
Winds:calm
Visibility:10 or more sm (16+ km)
Ceiling:at least 12,000 feet AGL
Clouds:sky clear below 12,000 feet AGL
QC Flag:automated observation with no human augmentation
Text:KHLB 060135Z AUTO 00000KT 10SM CLR 23/23 A2994 RMK A01
Temperature: 23.0°C ( 73°F)
Dewpoint: 23.0°C ( 73°F) [RH = 100%]
Pressure (altimeter):29.94 inches Hg (1014.0 mb)
Winds:calm
Visibility:10 or more sm (16+ km)
Ceiling:at least 12,000 feet AGL
Clouds:sky clear below 12,000 feet AGL
QC Flag:automated observation with no human augmentation
Text:KHLB 060115Z AUTO 00000KT 10SM CLR 24/23 A2993 RMK A01
Temperature: 24.0°C ( 75°F)
Dewpoint: 23.0°C ( 73°F) [RH = 94%]
Pressure (altimeter):29.93 inches Hg (1013.6 mb)
Winds:calm
Visibility:10 or more sm (16+ km)
Ceiling:at least 12,000 feet AGL
Clouds:sky clear below 12,000 feet AGL
QC Flag:automated observation with no human augmentation
Text:KHLB 060055Z AUTO 00000KT 10SM CLR 25/21 A2992 RMK A01
Temperature: 25.0°C ( 77°F)
Dewpoint: 21.0°C ( 70°F) [RH = 79%]
Pressure (altimeter):29.92 inches Hg (1013.3 mb)
Winds:calm
Visibility:10 or more sm (16+ km)
Ceiling:at least 12,000 feet AGL
Clouds:sky clear below 12,000 feet AGL
QC Flag:automated observation with no human augmentation
Text:KHLB 060035Z AUTO 00000KT 10SM CLR 26/20 A2992 RMK A01
Temperature: 26.0°C ( 79°F)
Dewpoint: 20.0°C ( 68°F) [RH = 70%]
Pressure (altimeter):29.92 inches Hg (1013.3 mb)
Winds:calm
Visibility:10 or more sm (16+ km)
Ceiling:at least 12,000 feet AGL
Clouds:sky clear below 12,000 feet AGL
QC Flag:automated observation with no human augmentation
Text:KHLB 060015Z AUTO 00000KT 10SM CLR 27/20 A2991 RMK A01
Temperature: 27.0°C ( 81°F)
Dewpoint: 20.0°C ( 68°F) [RH = 66%]
Pressure (altimeter):29.91 inches Hg (1013.0 mb)
Winds:calm
Visibility:10 or more sm (16+ km)
Ceiling:at least 12,000 feet AGL
Clouds:sky clear below 12,000 feet AGL
QC Flag:automated observation with no human augmentation
Text:KHLB 052355Z AUTO 00000KT 10SM CLR 27/20 A2990 RMK A01
Temperature: 27.0°C ( 81°F)
Dewpoint: 20.0°C ( 68°F) [RH = 66%]
Pressure (altimeter):29.90 inches Hg (1012.6 mb)
Winds:calm
Visibility:10 or more sm (16+ km)
Ceiling:at least 12,000 feet AGL
Clouds:sky clear below 12,000 feet AGL
QC Flag:automated observation with no human augmentation
Text:KHLB 052335Z AUTO 00000KT 10SM CLR 28/20 A2989 RMK A01
Temperature: 28.0°C ( 82°F)
Dewpoint: 20.0°C ( 68°F) [RH = 62%]
Pressure (altimeter):29.89 inches Hg (1012.3 mb)
Winds:calm
Visibility:10 or more sm (16+ km)
Ceiling:at least 12,000 feet AGL
Clouds:sky clear below 12,000 feet AGL
QC Flag:automated observation with no human augmentation
Text:KHLB 052315Z AUTO VRB03KT 10SM CLR 29/20 A2989 RMK A01
Temperature: 29.0°C ( 84°F)
Dewpoint: 20.0°C ( 68°F) [RH = 58%]
Pressure (altimeter):29.89 inches Hg (1012.3 mb)
Winds:variable direction winds at 3 MPH (3 knots; 1.5 m/s)
Visibility:10 or more sm (16+ km)
Ceiling:at least 12,000 feet AGL
Clouds:sky clear below 12,000 feet AGL
QC Flag:automated observation with no human augmentation
Text:KHLB 052255Z AUTO 00000KT 10SM CLR 29/20 A2988 RMK A01
Temperature: 29.0°C ( 84°F)
Dewpoint: 20.0°C ( 68°F) [RH = 58%]
Pressure (altimeter):29.88 inches Hg (1011.9 mb)
Winds:calm
Visibility:10 or more sm (16+ km)
Ceiling:at least 12,000 feet AGL
Clouds:sky clear below 12,000 feet AGL
QC Flag:automated observation with no human augmentation
Text:KHLB 052235Z AUTO VRB04KT 10SM FEW065 29/19 A2988 RMK A01
Temperature: 29.0°C ( 84°F)
Dewpoint: 19.0°C ( 66°F) [RH = 55%]
Pressure (altimeter):29.88 inches Hg (1011.9 mb)
Winds:variable direction winds at 5 MPH (4 knots; 2.1 m/s)
Visibility:10 or more sm (16+ km)
Ceiling:at least 12,000 feet AGL
Clouds: few clouds at 6500 feet AGL
QC Flag:automated observation with no human augmentation
Text:KHLB 052215Z AUTO 00000KT 10SM SCT065 BKN080 BKN090 29/19 A2989 RMK A01
Temperature: 29.0°C ( 84°F)
Dewpoint: 19.0°C ( 66°F) [RH = 55%]
Pressure (altimeter):29.89 inches Hg (1012.3 mb)
Winds:calm
Visibility:10 or more sm (16+ km)
Ceiling:8000 feet AGL
Clouds: scattered clouds at 6500 feet AGL, broken clouds at 8000 feet AGL, broken clouds at 9000 feet AGL
QC Flag:automated observation with no human augmentation
Text:KHLB 052155Z AUTO VRB03KT 10SM SCT065 BKN075 BKN090 29/17 A2989 RMK A01
Temperature: 29.0°C ( 84°F)
Dewpoint: 17.0°C ( 63°F) [RH = 48%]
Pressure (altimeter):29.89 inches Hg (1012.3 mb)
Winds:variable direction winds at 3 MPH (3 knots; 1.5 m/s)
Visibility:10 or more sm (16+ km)
Ceiling:7500 feet AGL
Clouds: scattered clouds at 6500 feet AGL, broken clouds at 7500 feet AGL, broken clouds at 9000 feet AGL
QC Flag:automated observation with no human augmentation
Text:KHLB 052135Z AUTO 00000KT 10SM SCT060 BKN075 30/19 A2990 RMK A01
Temperature: 30.0°C ( 86°F)
Dewpoint: 19.0°C ( 66°F) [RH = 52%]
Pressure (altimeter):29.90 inches Hg (1012.6 mb)
Winds:calm
Visibility:10 or more sm (16+ km)
Ceiling:7500 feet AGL
Clouds: scattered clouds at 6000 feet AGL, broken clouds at 7500 feet AGL
QC Flag:automated observation with no human augmentation
Text:KHLB 052115Z AUTO VRB03KT 10SM SCT060 SCT070 29/19 A2990 RMK A01
Temperature: 29.0°C ( 84°F)
Dewpoint: 19.0°C ( 66°F) [RH = 55%]
Pressure (altimeter):29.90 inches Hg (1012.6 mb)
Winds:variable direction winds at 3 MPH (3 knots; 1.5 m/s)
Visibility:10 or more sm (16+ km)
Ceiling:at least 12,000 feet AGL
Clouds: scattered clouds at 6000 feet AGL, scattered clouds at 7000 feet AGL
QC Flag:automated observation with no human augmentation
Text:KHLB 052055Z AUTO 00000KT 10SM FEW060 29/19 A2990 RMK A01
Temperature: 29.0°C ( 84°F)
Dewpoint: 19.0°C ( 66°F) [RH = 55%]
Pressure (altimeter):29.90 inches Hg (1012.6 mb)
Winds:calm
Visibility:10 or more sm (16+ km)
Ceiling:at least 12,000 feet AGL
Clouds: few clouds at 6000 feet AGL
QC Flag:automated observation with no human augmentation
Text:KHLB 052035Z AUTO 00000KT 10SM FEW070 30/19 A2990 RMK A01
Temperature: 30.0°C ( 86°F)
Dewpoint: 19.0°C ( 66°F) [RH = 52%]
Pressure (altimeter):29.90 inches Hg (1012.6 mb)
Winds:calm
Visibility:10 or more sm (16+ km)
Ceiling:at least 12,000 feet AGL
Clouds: few clouds at 7000 feet AGL
QC Flag:automated observation with no human augmentation
Text:KHLB 052015Z AUTO 00000KT 10SM SCT070 30/19 A2990 RMK A01
Temperature: 30.0°C ( 86°F)
Dewpoint: 19.0°C ( 66°F) [RH = 52%]
Pressure (altimeter):29.90 inches Hg (1012.6 mb)
Winds:calm
Visibility:10 or more sm (16+ km)
Ceiling:at least 12,000 feet AGL
Clouds: scattered clouds at 7000 feet AGL
QC Flag:automated observation with no human augmentation
Text:KHLB 051955Z AUTO 00000G11KT 10SM SCT055 SCT065 29/19 A2990 RMK A01
Temperature: 29.0°C ( 84°F)
Dewpoint: 19.0°C ( 66°F) [RH = 55%]
Pressure (altimeter):29.90 inches Hg (1012.6 mb)
Winds:calm
Visibility:10 or more sm (16+ km)
Ceiling:at least 12,000 feet AGL
Clouds: scattered clouds at 5500 feet AGL, scattered clouds at 6500 feet AGL
QC Flag:automated observation with no human augmentation
Text:KHLB 051935Z AUTO 19006KT 9SM BKN055 BKN065 BKN080 30/19 A2991 RMK A01
Temperature: 30.0°C ( 86°F)
Dewpoint: 19.0°C ( 66°F) [RH = 52%]
Pressure (altimeter):29.91 inches Hg (1013.0 mb)
Winds:from the S (190 degrees) at 7 MPH (6 knots; 3.1 m/s)
Visibility: 9 sm ( 14 km)
Ceiling:5500 feet AGL
Clouds: broken clouds at 5500 feet AGL, broken clouds at 6500 feet AGL, broken clouds at 8000 feet AGL
QC Flag:automated observation with no human augmentation
Text:KHLB 051915Z AUTO VRB03KT 10SM SCT050 BKN060 30/19 A2991 RMK A01
Temperature: 30.0°C ( 86°F)
Dewpoint: 19.0°C ( 66°F) [RH = 52%]
Pressure (altimeter):29.91 inches Hg (1013.0 mb)
Winds:variable direction winds at 3 MPH (3 knots; 1.5 m/s)
Visibility:10 or more sm (16+ km)
Ceiling:6000 feet AGL
Clouds: scattered clouds at 5000 feet AGL, broken clouds at 6000 feet AGL
QC Flag:automated observation with no human augmentation
Text:KHLB 051855Z AUTO 00000KT 10SM SCT050 BKN055 29/17 A2991 RMK A01
Temperature: 29.0°C ( 84°F)
Dewpoint: 17.0°C ( 63°F) [RH = 48%]
Pressure (altimeter):29.91 inches Hg (1013.0 mb)
Winds:calm
Visibility:10 or more sm (16+ km)
Ceiling:5500 feet AGL
Clouds: scattered clouds at 5000 feet AGL, broken clouds at 5500 feet AGL
QC Flag:automated observation with no human augmentation
Text:KHLB 051835Z AUTO 00000KT 10SM CLR 29/18 A2991 RMK A01
Temperature: 29.0°C ( 84°F)
Dewpoint: 18.0°C ( 64°F) [RH = 52%]
Pressure (altimeter):29.91 inches Hg (1013.0 mb)
Winds:calm
Visibility:10 or more sm (16+ km)
Ceiling:at least 12,000 feet AGL
Clouds:sky clear below 12,000 feet AGL
QC Flag:automated observation with no human augmentation
Text:KHLB 051815Z AUTO VRB05KT 10SM CLR 29/18 A2991 RMK A01
Temperature: 29.0°C ( 84°F)
Dewpoint: 18.0°C ( 64°F) [RH = 52%]
Pressure (altimeter):29.91 inches Hg (1013.0 mb)
Winds:variable direction winds at 6 MPH (5 knots; 2.6 m/s)
Visibility:10 or more sm (16+ km)
Ceiling:at least 12,000 feet AGL
Clouds:sky clear below 12,000 feet AGL
QC Flag:automated observation with no human augmentation
Text:KHLB 051755Z AUTO VRB04KT 10SM FEW042 29/19 A2992 RMK A01 P0001
Temperature: 29.0°C ( 84°F)
Dewpoint: 19.0°C ( 66°F) [RH = 55%]
Pressure (altimeter):29.92 inches Hg (1013.3 mb)
Winds:variable direction winds at 5 MPH (4 knots; 2.1 m/s)
Visibility:10 or more sm (16+ km)
Ceiling:at least 12,000 feet AGL
Clouds: few clouds at 4200 feet AGL
QC Flag:automated observation with no human augmentation
Text:KHLB 051735Z AUTO 06005KT 10SM FEW041 29/19 A2993 RMK A01
Temperature: 29.0°C ( 84°F)
Dewpoint: 19.0°C ( 66°F) [RH = 55%]
Pressure (altimeter):29.93 inches Hg (1013.6 mb)
Winds:from the ENE (60 degrees) at 6 MPH (5 knots; 2.6 m/s)
Visibility:10 or more sm (16+ km)
Ceiling:at least 12,000 feet AGL
Clouds: few clouds at 4100 feet AGL
QC Flag:automated observation with no human augmentation
Text:KHLB 051715Z AUTO VRB03KT 10SM FEW041 FEW049 28/19 A2994 RMK A01
Temperature: 28.0°C ( 82°F)
Dewpoint: 19.0°C ( 66°F) [RH = 58%]
Pressure (altimeter):29.94 inches Hg (1014.0 mb)
Winds:variable direction winds at 3 MPH (3 knots; 1.5 m/s)
Visibility:10 or more sm (16+ km)
Ceiling:at least 12,000 feet AGL
Clouds: few clouds at 4100 feet AGL, few clouds at 4900 feet AGL
QC Flag:automated observation with no human augmentation
Text:KHLB 051655Z AUTO 00000KT 10SM FEW041 FEW049 28/19 A2993 RMK A01
Temperature: 28.0°C ( 82°F)
Dewpoint: 19.0°C ( 66°F) [RH = 58%]
Pressure (altimeter):29.93 inches Hg (1013.6 mb)
Winds:calm
Visibility:10 or more sm (16+ km)
Ceiling:at least 12,000 feet AGL
Clouds: few clouds at 4100 feet AGL, few clouds at 4900 feet AGL
QC Flag:automated observation with no human augmentation
Text:KHLB 051635Z AUTO 03004KT 10SM FEW041 28/19 A2994 RMK A01
Temperature: 28.0°C ( 82°F)
Dewpoint: 19.0°C ( 66°F) [RH = 58%]
Pressure (altimeter):29.94 inches Hg (1014.0 mb)
Winds:from the NNE (30 degrees) at 5 MPH (4 knots; 2.1 m/s)
Visibility:10 or more sm (16+ km)
Ceiling:at least 12,000 feet AGL
Clouds: few clouds at 4100 feet AGL
QC Flag:automated observation with no human augmentation
Text:KHLB 051615Z AUTO VRB03KT 10SM FEW034 27/20 A2993 RMK A01
Temperature: 27.0°C ( 81°F)
Dewpoint: 20.0°C ( 68°F) [RH = 66%]
Pressure (altimeter):29.93 inches Hg (1013.6 mb)
Winds:variable direction winds at 3 MPH (3 knots; 1.5 m/s)
Visibility:10 or more sm (16+ km)
Ceiling:at least 12,000 feet AGL
Clouds: few clouds at 3400 feet AGL
QC Flag:automated observation with no human augmentation